Time;durP1;ratioP1;P1;durP2;ratioP2;P2;SDS_P1;SDS_P2;PMS_P1;PMS_P2;Temp;Humidity;BMP_temperature;BMP_pressure;BME280_temperature;BME280_humidity;BME280_pressure;Samples;Min_cycle;Max_cycle;Signal;HPM_P1;HPM_P2
2021/05/23 00:01:15;;;;;;;82.97;62.10;;;20.10;62.70;;;;;;5032536;28;20067;-61
2021/05/23 00:03:40;;;;;;;88.03;64.40;;;20.10;62.70;;;;;;5031230;28;20090;-61
2021/05/23 00:06:06;;;;;;;82.00;60.83;;;20.10;62.70;;;;;;5032016;28;20120;-61
2021/05/23 00:08:32;;;;;;;82.03;60.38;;;20.10;62.70;;;;;;5031759;28;20056;-61
2021/05/23 00:11:00;;;;;;;85.07;60.45;;;20.10;62.70;;;;;;5031650;28;20127;-61
2021/05/23 00:13:32;;;;;;;82.28;57.88;;;20.10;62.70;;;;;;5038496;28;20038;-61
2021/05/23 00:16:04;;;;;;;80.25;59.47;;;20.10;62.70;;;;;;5038413;28;20048;-61
2021/05/23 00:18:32;;;;;;;79.80;58.05;;;20.10;62.70;;;;;;5037842;28;20559;-61
2021/05/23 00:20:58;;;;;;;83.15;59.88;;;20.10;62.70;;;;;;5038722;28;20111;-62
2021/05/23 00:23:24;;;;;;;78.00;56.85;;;20.10;62.70;;;;;;5038597;28;20514;-61
2021/05/23 00:25:51;;;;;;;77.88;57.30;;;20.10;62.70;;;;;;5038319;28;20041;-62
2021/05/23 00:28:17;;;;;;;77.80;56.10;;;20.10;62.70;;;;;;5038271;28;20036;-61
2021/05/23 00:30:43;;;;;;;79.55;57.00;;;20.10;62.70;;;;;;5038628;28;20044;-61
2021/05/23 00:33:10;;;;;;;72.70;53.55;;;20.10;62.70;;;;;;5038212;28;20977;-61
2021/05/23 00:35:37;;;;;;;74.97;53.60;;;20.10;62.70;;;;;;5038478;28;20041;-61
2021/05/23 00:38:04;;;;;;;73.53;53.80;;;20.10;63.40;;;;;;5038648;28;20040;-61
2021/05/23 00:40:30;;;;;;;74.72;52.30;;;20.10;62.70;;;;;;5037918;28;20069;-61
2021/05/23 00:42:55;;;;;;;73.60;52.30;;;20.10;62.70;;;;;;5037977;28;20136;-61
2021/05/23 00:45:21;;;;;;;72.65;53.45;;;20.10;62.70;;;;;;5036268;28;20068;-61
2021/05/23 00:47:48;;;;;;;68.82;49.55;;;20.10;62.70;;;;;;5037786;28;20041;-61
2021/05/23 00:50:21;;;;;;;67.72;51.42;;;20.10;62.60;;;;;;5038162;28;20044;-61
2021/05/23 00:52:47;;;;;;;58.60;42.47;;;20.10;62.60;;;;;;5038189;28;20044;-61
2021/05/23 00:55:13;;;;;;;57.60;39.78;;;20.00;62.80;;;;;;5034558;28;20515;-59
2021/05/23 00:57:39;;;;;;;59.10;43.03;;;20.00;63.00;;;;;;5017990;28;20080;-59
2021/05/23 01:00:06;;;;;;;59.63;43.40;;;20.00;62.90;;;;;;5016755;28;20111;-60
2021/05/23 01:02:47;;;;;;;57.42;42.63;;;20.00;62.70;;;;;;5018235;28;20049;-57
2021/05/23 01:05:21;;;;;;;65.88;45.72;;;20.10;62.60;;;;;;5018153;28;20097;-58
2021/05/23 01:07:47;;;;;;;68.63;50.15;;;20.10;62.80;;;;;;5018714;28;20075;-58
2021/05/23 01:10:21;;;;;;;73.13;50.17;;;20.10;62.70;;;;;;5018135;28;20053;-58
2021/05/23 01:12:53;;;;;;;65.15;48.63;;;20.10;62.70;;;;;;5017594;28;20487;-59
2021/05/23 01:15:35;;;;;;;65.20;47.25;;;20.10;62.60;;;;;;5016359;28;20404;-60
2021/05/23 01:18:11;;;;;;;64.63;44.85;;;20.10;63.40;;;;;;5016869;28;20045;-59
2021/05/23 01:20:55;;;;;;;67.03;47.85;;;20.10;63.70;;;;;;5017138;28;20076;-58
2021/05/23 01:23:30;;;;;;;88.00;63.30;;;20.10;63.00;;;;;;5016189;28;20128;-57
2021/05/23 01:26:06;;;;;;;147.82;105.40;;;20.00;63.10;;;;;;5014958;28;20143;-59
2021/05/23 01:28:37;;;;;;;162.98;114.38;;;20.00;63.20;;;;;;5014877;28;20489;-56
2021/05/23 01:31:06;;;;;;;168.30;118.75;;;20.00;63.20;;;;;;5014962;28;20419;-59
2021/05/23 01:33:33;;;;;;;175.75;123.45;;;20.00;63.20;;;;;;5015415;28;20085;-58
2021/05/23 01:35:59;;;;;;;187.95;134.63;;;20.00;63.10;;;;;;5015258;28;20115;-59
2021/05/23 01:38:27;;;;;;;190.52;139.60;;;20.00;63.00;;;;;;5015064;28;20158;-59
2021/05/23 01:41:05;;;;;;;209.15;157.63;;;20.00;63.00;;;;;;5015142;28;20548;-59
2021/05/23 01:43:32;;;;;;;205.52;147.73;;;20.00;63.00;;;;;;5013539;28;20227;-60
2021/05/23 01:45:58;;;;;;;215.77;157.10;;;20.00;63.10;;;;;;5014752;28;20049;-59
2021/05/23 01:48:25;;;;;;;223.88;161.73;;;20.10;63.20;;;;;;5014765;28;20045;-59
2021/05/23 01:50:51;;;;;;;212.10;156.07;;;20.10;63.30;;;;;;5015142;28;20393;-59
2021/05/23 01:53:16;;;;;;;213.48;156.45;;;20.00;64.00;;;;;;5014550;28;20539;-59
2021/05/23 01:55:42;;;;;;;217.40;159.15;;;20.00;63.30;;;;;;5014823;28;20140;-58
2021/05/23 01:58:08;;;;;;;203.40;148.80;;;20.00;63.40;;;;;;5014367;28;20037;-60
2021/05/23 02:00:39;;;;;;;210.45;155.15;;;20.10;63.40;;;;;;5014785;28;20107;-59
2021/05/23 02:03:09;;;;;;;215.90;158.85;;;20.00;63.50;;;;;;5014768;28;20046;-58
2021/05/23 02:05:38;;;;;;;204.30;152.60;;;20.00;63.60;;;;;;5014568;28;20098;-59
2021/05/23 02:08:04;;;;;;;197.05;144.55;;;20.00;63.60;;;;;;5014261;28;20063;-59
2021/05/23 02:10:30;;;;;;;190.15;140.40;;;20.00;63.40;;;;;;5014520;28;20055;-59
2021/05/23 02:12:59;;;;;;;183.32;133.75;;;20.00;63.30;;;;;;5014551;28;20080;-58
2021/05/23 02:15:25;;;;;;;177.75;133.38;;;20.00;63.20;;;;;;5014141;28;20493;-59
2021/05/23 02:17:51;;;;;;;175.80;128.23;;;20.00;63.30;;;;;;5014282;28;20037;-58
2021/05/23 02:20:23;;;;;;;166.35;126.47;;;20.00;63.20;;;;;;5014176;28;20126;-58
2021/05/23 02:22:50;;;;;;;166.57;126.45;;;20.00;63.20;;;;;;5014317;28;20501;-58
2021/05/23 02:25:20;;;;;;;171.27;127.47;;;20.00;63.10;;;;;;5013950;28;20067;-59
2021/05/23 02:27:48;;;;;;;172.00;126.00;;;20.00;63.50;;;;;;5014369;28;20076;-59
2021/05/23 02:30:24;;;;;;;166.05;122.43;;;20.00;63.20;;;;;;5014216;28;20049;-59
2021/05/23 02:32:50;;;;;;;157.20;117.50;;;20.00;63.40;;;;;;5014117;28;20500;-58
2021/05/23 02:35:18;;;;;;;155.88;115.45;;;20.00;63.30;;;;;;5012648;28;20579;-59
2021/05/23 02:37:44;;;;;;;158.68;115.18;;;20.00;63.30;;;;;;5013926;28;20077;-59
2021/05/23 02:40:15;;;;;;;162.50;118.07;;;20.00;63.30;;;;;;5013525;28;20091;-58
2021/05/23 02:42:42;;;;;;;151.73;112.82;;;20.00;63.20;;;;;;5014148;28;20045;-58
2021/05/23 02:45:09;;;;;;;145.48;110.97;;;20.00;63.20;;;;;;5013881;28;20045;-59
2021/05/23 02:47:36;;;;;;;141.82;109.43;;;20.00;63.10;;;;;;5013903;28;20041;-59
2021/05/23 02:50:05;;;;;;;146.25;108.90;;;20.00;63.00;;;;;;5013625;28;20073;-59
2021/05/23 02:52:30;;;;;;;145.23;107.65;;;20.00;63.00;;;;;;5013452;28;20060;-59
2021/05/23 02:54:56;;;;;;;139.05;105.38;;;20.00;62.90;;;;;;5014022;28;20045;-58
2021/05/23 02:57:22;;;;;;;137.65;103.60;;;20.00;62.90;;;;;;5013461;28;20068;-58
2021/05/23 02:59:48;;;;;;;139.85;104.28;;;20.00;62.90;;;;;;5013597;28;20104;-58
2021/05/23 03:02:14;;;;;;;130.43;100.22;;;19.90;62.90;;;;;;5013383;28;20060;-58
2021/05/23 03:04:40;;;;;;;132.07;101.13;;;19.90;62.80;;;;;;5013657;28;20098;-59
2021/05/23 03:07:06;;;;;;;128.98;96.88;;;19.90;62.80;;;;;;5012956;28;20615;-59
2021/05/23 03:09:32;;;;;;;128.95;97.68;;;19.90;62.80;;;;;;5013313;28;20501;-59
2021/05/23 03:11:58;;;;;;;131.50;96.13;;;19.90;62.80;;;;;;5013468;28;20100;-59
2021/05/23 03:14:24;;;;;;;123.55;93.75;;;19.90;62.80;;;;;;5013425;28;20044;-59
2021/05/23 03:16:49;;;;;;;121.75;93.13;;;19.90;62.70;;;;;;5013300;28;20051;-59
2021/05/23 03:19:15;;;;;;;120.10;95.15;;;19.90;62.70;;;;;;5013279;28;20060;-59
2021/05/23 03:21:41;;;;;;;123.45;92.43;;;19.90;62.70;;;;;;5013140;28;20501;-59
2021/05/23 03:24:07;;;;;;;121.15;91.70;;;19.90;62.60;;;;;;5013032;28;20071;-59
2021/05/23 03:26:33;;;;;;;121.70;92.43;;;19.90;62.50;;;;;;5013341;28;20041;-59
2021/05/23 03:28:59;;;;;;;119.85;90.93;;;19.90;62.50;;;;;;5013257;28;20033;-59
2021/05/23 03:31:25;;;;;;;114.72;87.22;;;19.90;62.50;;;;;;5013342;28;20462;-58
2021/05/23 03:33:50;;;;;;;120.00;89.43;;;19.90;62.50;;;;;;5012645;28;20078;-59
2021/05/23 03:36:17;;;;;;;111.40;85.90;;;19.90;62.50;;;;;;5012795;28;20045;-59
2021/05/23 03:38:46;;;;;;;109.22;83.13;;;19.90;62.50;;;;;;5012827;28;20466;-59
2021/05/23 03:41:13;;;;;;;105.50;81.85;;;19.90;62.50;;;;;;5012994;28;20070;-59
2021/05/23 03:43:40;;;;;;;108.57;81.78;;;19.90;62.50;;;;;;5012776;28;20159;-59
2021/05/23 03:46:05;;;;;;;106.25;81.15;;;19.90;62.50;;;;;;5012423;28;20103;-59
2021/05/23 03:48:32;;;;;;;107.82;82.90;;;19.90;62.40;;;;;;5012635;28;20142;-59
2021/05/23 03:50:58;;;;;;;110.32;83.50;;;19.90;62.40;;;;;;5012727;28;20044;-59
2021/05/23 03:53:23;;;;;;;105.32;80.95;;;19.90;62.40;;;;;;5013366;28;20055;-59
2021/05/23 03:55:49;;;;;;;108.20;79.75;;;19.90;62.40;;;;;;5012818;28;20478;-58
2021/05/23 03:58:16;;;;;;;107.15;80.03;;;19.90;62.30;;;;;;5012787;28;20421;-58
2021/05/23 04:00:42;;;;;;;107.68;80.32;;;19.90;62.30;;;;;;5012398;28;20074;-59
2021/05/23 04:03:08;;;;;;;101.35;78.18;;;19.90;62.30;;;;;;5012682;28;20053;-59
2021/05/23 04:05:34;;;;;;;105.60;79.45;;;19.90;62.30;;;;;;5012121;28;20225;-63
2021/05/23 04:08:00;;;;;;;102.90;78.22;;;19.90;62.30;;;;;;5012520;28;20065;-59
2021/05/23 04:10:38;;;;;;;98.93;75.28;;;19.90;62.30;;;;;;5012410;28;20041;-59
2021/05/23 04:13:05;;;;;;;98.45;75.60;;;19.90;62.20;;;;;;5012981;28;20057;-59
2021/05/23 04:15:31;;;;;;;95.05;73.75;;;19.90;62.20;;;;;;5012144;28;20049;-59
2021/05/23 04:17:57;;;;;;;99.85;77.05;;;19.90;62.20;;;;;;5012331;28;20045;-59
2021/05/23 04:20:26;;;;;;;96.82;74.75;;;19.90;62.20;;;;;;5012340;28;20553;-58
2021/05/23 04:22:53;;;;;;;94.68;73.88;;;19.80;62.10;;;;;;5012605;28;20103;-58
2021/05/23 04:25:20;;;;;;;93.55;71.40;;;19.90;62.20;;;;;;5012478;28;20095;-59
2021/05/23 04:27:48;;;;;;;91.43;67.63;;;19.80;62.10;;;;;;5012429;28;20045;-59
2021/05/23 04:30:16;;;;;;;88.28;68.85;;;19.90;62.20;;;;;;5012262;28;20074;-59
2021/05/23 04:32:42;;;;;;;88.78;68.93;;;19.80;62.10;;;;;;5011964;28;20051;-58
2021/05/23 04:35:09;;;;;;;91.55;70.15;;;19.90;62.20;;;;;;5012621;28;20100;-59
2021/05/23 04:37:35;;;;;;;95.70;69.38;;;19.80;62.10;;;;;;5012285;28;20062;-58
2021/05/23 04:40:02;;;;;;;96.25;72.45;;;19.80;62.10;;;;;;5012458;28;20509;-59
2021/05/23 04:42:27;;;;;;;89.07;67.57;;;19.80;62.10;;;;;;5012046;28;20053;-59
2021/05/23 04:44:53;;;;;;;88.05;68.82;;;19.80;62.10;;;;;;5012170;28;20048;-58
2021/05/23 04:47:19;;;;;;;90.80;67.38;;;19.80;62.10;;;;;;5011706;28;20045;-59
2021/05/23 04:49:44;;;;;;;86.22;64.93;;;19.80;62.10;;;;;;5012365;28;20069;-59
2021/05/23 04:52:12;;;;;;;87.18;67.05;;;19.80;62.00;;;;;;5012140;28;20044;-59
2021/05/23 04:54:40;;;;;;;84.82;65.80;;;19.80;62.10;;;;;;5012248;28;20448;-60
2021/05/23 04:57:06;;;;;;;86.03;65.03;;;19.80;62.10;;;;;;5011884;28;20049;-58
2021/05/23 04:59:33;;;;;;;88.80;65.32;;;19.80;62.00;;;;;;5014423;28;20170;-59
2021/05/23 05:01:59;;;;;;;87.07;65.28;;;19.80;62.00;;;;;;5015757;28;20409;-58
2021/05/23 05:04:25;;;;;;;86.40;65.72;;;19.80;62.00;;;;;;5015580;28;20100;-58
2021/05/23 05:06:51;;;;;;;82.93;62.95;;;19.80;62.00;;;;;;5015671;28;20057;-58
2021/05/23 05:09:16;;;;;;;78.25;61.42;;;19.80;62.00;;;;;;5015667;28;20097;-59
2021/05/23 05:11:42;;;;;;;79.43;61.10;;;19.80;62.00;;;;;;5015567;28;20056;-59
2021/05/23 05:14:12;;;;;;;81.65;61.45;;;19.80;62.00;;;;;;5015346;28;20045;-61
2021/05/23 05:16:39;;;;;;;80.70;61.22;;;19.80;61.90;;;;;;5015381;28;20052;-59
2021/05/23 05:19:05;;;;;;;78.63;60.70;;;19.80;62.00;;;;;;5015394;28;20087;-58
2021/05/23 05:21:30;;;;;;;73.75;60.45;;;19.80;62.00;;;;;;5015478;28;20072;-58
2021/05/23 05:23:56;;;;;;;80.65;59.00;;;19.80;61.90;;;;;;5015449;28;20045;-59
2021/05/23 05:26:22;;;;;;;78.25;58.03;;;19.80;61.90;;;;;;5015399;28;20051;-58
2021/05/23 05:28:47;;;;;;;78.13;57.85;;;19.80;61.90;;;;;;5015111;28;20041;-59
2021/05/23 05:31:13;;;;;;;76.88;58.67;;;19.80;61.90;;;;;;5020381;28;20057;-59
2021/05/23 05:33:39;;;;;;;78.85;59.40;;;19.80;61.90;;;;;;5035091;28;20489;-60
2021/05/23 05:36:06;;;;;;;70.80;55.88;;;19.80;61.90;;;;;;5034775;28;20135;-58
2021/05/23 05:38:31;;;;;;;71.88;57.28;;;19.70;61.80;;;;;;5035115;28;20051;-59
2021/05/23 05:40:57;;;;;;;74.80;56.65;;;19.70;61.80;;;;;;5034454;28;20117;-59
2021/05/23 05:43:24;;;;;;;72.03;55.83;;;19.70;61.80;;;;;;5034644;28;20053;-59
2021/05/23 05:45:50;;;;;;;77.03;56.20;;;19.70;61.80;;;;;;5028609;28;20048;-59
2021/05/23 05:48:16;;;;;;;70.47;55.92;;;19.70;61.80;;;;;;5015039;28;20454;-59
2021/05/23 05:50:42;;;;;;;73.53;56.47;;;19.80;61.90;;;;;;5014755;28;20091;-60
2021/05/23 05:53:08;;;;;;;70.97;55.00;;;19.80;61.90;;;;;;5015117;28;20040;-59
2021/05/23 05:55:34;;;;;;;72.47;55.53;;;19.70;61.80;;;;;;5014616;28;20044;-59
2021/05/23 05:57:59;;;;;;;68.93;53.08;;;19.70;61.80;;;;;;5014601;28;20494;-58
2021/05/23 06:00:25;;;;;;;70.30;53.50;;;19.80;61.90;;;;;;5014532;28;20079;-59
2021/05/23 06:02:50;;;;;;;69.90;53.28;;;19.70;61.80;;;;;;5014034;28;20475;-58
2021/05/23 06:05:16;;;;;;;65.95;51.33;;;19.70;61.80;;;;;;5014559;28;20531;-60
2021/05/23 06:07:45;;;;;;;69.78;51.60;;;19.80;61.90;;;;;;5014534;28;20532;-58
2021/05/23 06:10:12;;;;;;;63.22;50.85;;;19.70;61.80;;;;;;5014419;28;20071;-58
2021/05/23 06:12:38;;;;;;;66.97;50.45;;;19.70;61.80;;;;;;5016760;28;20045;-59
2021/05/23 06:15:07;;;;;;;64.95;50.40;;;19.70;61.70;;;;;;5022462;28;20090;-59
2021/05/23 06:17:34;;;;;;;67.72;49.35;;;19.70;61.80;;;;;;5029427;28;20557;-59
2021/05/23 06:19:59;;;;;;;63.15;48.97;;;19.70;61.70;;;;;;5013949;28;20421;-58
2021/05/23 06:22:25;;;;;;;64.70;49.60;;;19.70;61.80;;;;;;5014022;28;20056;-59
2021/05/23 06:24:51;;;;;;;65.65;49.92;;;19.70;61.70;;;;;;5014087;28;20053;-59
2021/05/23 06:27:17;;;;;;;63.53;49.97;;;19.70;61.80;;;;;;5014340;28;20099;-59
2021/05/23 06:29:45;;;;;;;64.53;48.60;;;19.70;61.70;;;;;;5014083;28;20519;-59
2021/05/23 06:32:10;;;;;;;60.17;47.15;;;19.70;61.70;;;;;;5013982;28;20045;-59
2021/05/23 06:34:36;;;;;;;62.22;49.95;;;19.70;61.70;;;;;;5014104;28;20055;-58
2021/05/23 06:37:02;;;;;;;63.90;48.72;;;19.70;61.70;;;;;;5013592;28;20067;-58
2021/05/23 06:39:28;;;;;;;63.22;46.95;;;19.70;61.70;;;;;;5013946;28;20045;-57
2021/05/23 06:41:53;;;;;;;62.35;45.83;;;19.70;61.70;;;;;;5013773;28;20055;-58
2021/05/23 06:44:19;;;;;;;62.25;47.67;;;19.70;61.70;;;;;;5013841;28;20041;-58
2021/05/23 06:46:45;;;;;;;60.70;47.17;;;19.70;61.70;;;;;;5012994;28;20051;-57
2021/05/23 06:49:11;;;;;;;60.03;47.10;;;19.70;61.70;;;;;;5013720;28;20160;-58
2021/05/23 06:51:37;;;;;;;58.92;46.17;;;19.70;61.70;;;;;;5013719;28;20468;-58
2021/05/23 06:54:03;;;;;;;59.70;47.03;;;19.70;61.70;;;;;;5013443;28;20086;-57
2021/05/23 06:56:29;;;;;;;61.00;46.53;;;19.70;61.70;;;;;;5013524;28;20050;-58
2021/05/23 06:58:55;;;;;;;57.90;45.40;;;19.70;61.70;;;;;;5013626;28;20555;-57
2021/05/23 07:01:20;;;;;;;60.80;45.78;;;19.70;61.70;;;;;;5013375;28;20069;-58
2021/05/23 07:03:46;;;;;;;61.47;45.10;;;19.70;61.70;;;;;;5013513;28;20128;-58
2021/05/23 07:06:12;;;;;;;57.30;44.78;;;19.70;61.70;;;;;;5013673;28;20058;-57
2021/05/23 07:08:38;;;;;;;56.42;43.85;;;19.70;61.70;;;;;;5013137;28;20045;-57
2021/05/23 07:11:03;;;;;;;57.10;45.05;;;19.70;61.60;;;;;;5013269;28;20050;-58
2021/05/23 07:13:29;;;;;;;59.42;45.15;;;19.70;61.60;;;;;;5013480;28;20109;-58
2021/05/23 07:15:55;;;;;;;56.15;41.95;;;19.70;61.60;;;;;;5013227;28;20053;-57
2021/05/23 07:18:21;;;;;;;46.65;35.33;;;19.70;61.90;;;;;;5013320;28;20051;-59
2021/05/23 07:20:47;;;;;;;33.45;24.70;;;19.60;62.90;;;;;;5011305;28;20156;-58
2021/05/23 07:23:13;;;;;;;30.67;23.25;;;19.60;63.70;;;;;;5012799;28;20045;-61
2021/05/23 07:25:39;;;;;;;32.38;20.90;;;19.50;64.10;;;;;;5028036;28;20176;-60
2021/05/23 07:28:05;;;;;;;22.73;16.10;;;19.40;64.50;;;;;;5013337;28;20382;-59
2021/05/23 07:30:32;;;;;;;19.85;14.57;;;19.20;65.10;;;;;;5012997;28;20060;-60
2021/05/23 07:32:58;;;;;;;18.60;12.40;;;19.00;66.30;;;;;;5013106;28;20049;-60
2021/05/23 07:35:24;;;;;;;22.45;12.52;;;19.00;67.00;;;;;;5012867;28;20437;-60
2021/05/23 07:37:49;;;;;;;15.23;11.05;;;18.90;67.40;;;;;;5012968;28;20075;-61
2021/05/23 07:40:16;;;;;;;20.70;11.38;;;19.00;67.50;;;;;;5012674;28;20091;-60
2021/05/23 07:42:42;;;;;;;14.68;10.15;;;19.00;67.10;;;;;;5012931;28;20490;-61
2021/05/23 07:45:10;;;;;;;13.48;8.50;;;19.10;67.00;;;;;;5021156;28;20057;-63
2021/05/23 07:47:36;;;;;;;12.18;8.00;;;19.10;67.20;;;;;;5029385;28;20038;-62
2021/05/23 07:50:02;;;;;;;10.95;7.03;;;19.10;67.10;;;;;;5032601;28;20071;-62
2021/05/23 07:52:28;;;;;;;10.85;5.95;;;19.00;67.30;;;;;;5032738;28;20476;-61
2021/05/23 07:54:53;;;;;;;8.98;5.95;;;19.00;67.50;;;;;;5032257;28;20045;-63
2021/05/23 07:57:19;;;;;;;10.15;5.93;;;19.00;67.30;;;;;;5013224;28;20414;-61
2021/05/23 07:59:45;;;;;;;7.68;5.70;;;19.00;67.20;;;;;;5012497;28;20068;-60
2021/05/23 08:02:10;;;;;;;11.30;6.22;;;19.00;67.10;;;;;;5012569;28;20144;-58
2021/05/23 08:04:36;;;;;;;11.10;5.57;;;19.10;66.80;;;;;;5021605;28;20098;-61
2021/05/23 08:07:02;;;;;;;14.70;5.75;;;19.20;66.50;;;;;;5030910;28;20416;-61
2021/05/23 08:09:27;;;;;;;10.70;5.65;;;19.20;66.80;;;;;;5032167;28;20049;-61
2021/05/23 08:11:53;;;;;;;10.27;6.68;;;19.20;67.10;;;;;;5031989;28;20443;-61
2021/05/23 08:14:19;;;;;;;19.67;5.70;;;19.00;67.90;;;;;;5032439;28;20041;-62
2021/05/23 08:16:45;;;;;;;8.45;5.50;;;19.10;68.30;;;;;;5031635;28;20076;-63
2021/05/23 08:19:12;;;;;;;9.65;5.30;;;19.30;67.60;;;;;;5031679;28;20041;-62
2021/05/23 08:21:39;;;;;;;10.88;6.45;;;19.40;66.90;;;;;;5030784;28;20359;-62
2021/05/23 08:24:06;;;;;;;10.90;6.32;;;19.40;66.50;;;;;;5032064;28;20040;-63
2021/05/23 08:26:32;;;;;;;8.00;5.28;;;19.40;66.50;;;;;;5031626;28;20082;-66
2021/05/23 08:28:58;;;;;;;10.80;5.63;;;19.40;66.20;;;;;;5031682;28;20501;-66
2021/05/23 08:31:25;;;;;;;9.95;5.68;;;19.40;66.10;;;;;;5032320;28;20061;-67
2021/05/23 08:33:50;;;;;;;9.40;6.00;;;19.50;66.00;;;;;;5034408;28;20495;-65
2021/05/23 08:36:16;;;;;;;8.27;5.55;;;19.50;65.80;;;;;;5036475;28;20043;-63
2021/05/23 08:38:42;;;;;;;10.00;6.57;;;19.40;66.30;;;;;;5035630;28;20040;-65
2021/05/23 08:41:08;;;;;;;16.08;6.32;;;19.40;67.10;;;;;;5035727;28;20060;-66
2021/05/23 08:43:34;;;;;;;11.48;6.57;;;19.50;66.30;;;;;;5035568;28;20044;-67
2021/05/23 08:46:01;;;;;;;11.43;6.22;;;19.50;66.00;;;;;;5036081;28;20131;-64
2021/05/23 08:48:27;;;;;;;10.38;5.82;;;19.50;65.80;;;;;;5033590;28;20148;-66
2021/05/23 08:50:53;;;;;;;9.05;6.32;;;19.50;65.60;;;;;;5036005;28;20516;-65
2021/05/23 08:53:19;;;;;;;9.52;6.47;;;19.60;65.40;;;;;;5035798;28;20053;-62
2021/05/23 08:55:45;;;;;;;9.02;5.68;;;19.60;65.30;;;;;;5034965;28;20416;-65
2021/05/23 08:58:12;;;;;;;10.40;5.97;;;19.60;65.20;;;;;;5035616;28;20088;-63
2021/05/23 09:00:38;;;;;;;14.18;6.75;;;19.50;65.10;;;;;;5035360;28;20089;-62
2021/05/23 09:03:11;;;;;;;12.75;6.55;;;19.60;65.00;;;;;;5035072;28;20082;-63
2021/05/23 09:05:49;;;;;;;11.25;7.10;;;19.60;65.10;;;;;;5033684;28;20422;-64
2021/05/23 09:08:18;;;;;;;11.65;7.35;;;19.60;65.00;;;;;;5035473;28;20132;-62
2021/05/23 09:10:45;;;;;;;17.23;8.30;;;19.60;65.10;;;;;;5034803;28;20444;-62
2021/05/23 09:13:13;;;;;;;16.58;7.70;;;19.60;64.90;;;;;;5035340;28;20039;-63
2021/05/23 09:15:39;;;;;;;15.20;6.93;;;19.70;64.90;;;;;;5033797;28;20045;-62
2021/05/23 09:18:10;;;;;;;11.43;6.28;;;19.60;64.50;;;;;;5034848;28;20192;-63
2021/05/23 09:20:38;;;;;;;11.77;5.57;;;19.60;64.50;;;;;;5017359;28;20079;-63
2021/05/23 09:23:17;;;;;;;11.80;5.32;;;19.50;64.60;;;;;;5035331;28;20049;-63
2021/05/23 09:25:43;;;;;;;10.45;4.75;;;19.50;65.50;;;;;;5034732;28;20037;-61
2021/05/23 09:28:09;;;;;;;8.30;6.03;;;19.60;64.70;;;;;;5034889;28;20439;-61
2021/05/23 09:30:37;;;;;;;16.75;9.40;;;19.60;64.40;;;;;;5034457;28;20418;-65
2021/05/23 09:33:05;;;;;;;30.48;21.40;;;19.60;64.40;;;;;;5034061;28;20513;-58
2021/05/23 09:35:31;;;;;;;28.40;18.88;;;19.60;64.40;;;;;;5034751;28;20047;-59
2021/05/23 09:37:58;;;;;;;31.45;20.02;;;19.60;64.10;;;;;;5034622;28;20044;-60
2021/05/23 09:40:26;;;;;;;25.35;17.77;;;19.60;63.70;;;;;;5033948;28;20077;-60
2021/05/23 09:42:53;;;;;;;40.45;29.40;;;19.60;63.50;;;;;;5035057;28;20187;-59
2021/05/23 09:45:21;;;;;;;38.20;25.73;;;19.60;63.80;;;;;;5033424;28;20037;-62
2021/05/23 09:47:50;;;;;;;61.35;39.13;;;19.60;63.90;;;;;;5033964;28;20048;-59
2021/05/23 09:50:16;;;;;;;38.75;27.60;;;19.70;64.00;;;;;;5034477;28;20139;-59
2021/05/23 09:52:41;;;;;;;35.70;24.63;;;19.70;64.30;;;;;;5034949;28;20454;-59
2021/05/23 09:55:08;;;;;;;32.28;19.60;;;19.60;64.70;;;;;;5033646;28;20120;-59
2021/05/23 09:57:34;;;;;;;29.02;18.00;;;19.60;66.20;;;;;;5034462;28;20056;-67
2021/05/23 10:00:12;;;;;;;19.42;13.40;;;19.60;65.90;;;;;;5034339;28;20409;-68
2021/05/23 10:02:51;;;;;;;23.27;14.93;;;19.60;65.70;;;;;;5032418;28;20059;-67
2021/05/23 10:05:17;;;;;;;16.50;12.53;;;19.50;65.50;;;;;;5032878;28;20088;-65
2021/05/23 10:07:43;;;;;;;15.82;10.70;;;19.50;65.50;;;;;;5034392;28;20040;-64
2021/05/23 10:10:09;;;;;;;14.93;9.13;;;19.50;65.40;;;;;;5034022;28;20490;-66
2021/05/23 10:12:35;;;;;;;11.10;8.57;;;19.50;65.20;;;;;;5032633;28;20133;-64
2021/05/23 10:15:01;;;;;;;13.40;9.65;;;19.60;65.00;;;;;;5034434;28;20043;-65
2021/05/23 10:17:27;;;;;;;11.48;8.05;;;19.60;65.10;;;;;;5033230;28;20044;-67
2021/05/23 10:19:53;;;;;;;11.98;7.10;;;19.60;63.90;;;;;;5033883;28;20064;-67
2021/05/23 10:22:20;;;;;;;10.27;6.60;;;19.60;62.90;;;;;;5033479;28;20081;-64
2021/05/23 10:24:53;;;;;;;8.57;6.22;;;19.60;62.40;;;;;;5033452;28;20091;-64
2021/05/23 10:27:22;;;;;;;8.23;5.90;;;19.60;62.50;;;;;;5033493;28;20475;-63
2021/05/23 10:29:53;;;;;;;12.23;9.43;;;19.60;62.00;;;;;;5034004;28;20055;-66
2021/05/23 10:32:27;;;;;;;45.80;34.58;;;19.60;61.70;;;;;;5030827;28;20122;-68
2021/05/23 10:34:54;;;;;;;35.28;26.73;;;19.60;62.20;;;;;;5033895;28;20547;-68
2021/05/23 10:37:27;;;;;;;36.15;27.42;;;19.60;62.70;;;;;;5033476;28;20161;-61
2021/05/23 10:39:54;;;;;;;34.45;24.52;;;19.90;62.30;;;;;;5033649;28;20073;-58
2021/05/23 10:42:23;;;;;;;36.15;25.65;;;20.40;60.00;;;;;;5033846;28;20060;-63
2021/05/23 10:44:51;;;;;;;31.05;22.25;;;20.30;59.90;;;;;;5033641;28;20079;-60
2021/05/23 10:47:33;;;;;;;33.60;20.17;;;20.20;60.50;;;;;;5033523;28;20052;-60
2021/05/23 10:50:08;;;;;;;26.83;18.05;;;20.10;61.20;;;;;;5033437;28;20057;-61
2021/05/23 10:52:37;;;;;;;21.10;15.65;;;20.00;61.50;;;;;;5033825;28;20056;-63
2021/05/23 10:55:21;;;;;;;19.45;13.25;;;19.90;61.00;;;;;;5033295;28;20068;-63
2021/05/23 10:57:49;;;;;;;19.55;16.48;;;19.80;60.80;;;;;;5032868;28;20062;-62
2021/05/23 11:00:23;;;;;;;31.55;17.55;;;19.80;60.60;;;;;;5033147;28;20059;-63
2021/05/23 11:02:51;;;;;;;32.45;22.33;;;19.80;60.80;;;;;;5033567;28;20426;-62
2021/05/23 11:05:23;;;;;;;31.33;22.73;;;19.80;60.80;;;;;;5033091;28;20092;-62
2021/05/23 11:08:00;;;;;;;62.00;43.88;;;19.80;60.90;;;;;;5033315;28;20045;-61
2021/05/23 11:10:31;;;;;;;43.20;31.65;;;19.90;61.20;;;;;;5033110;28;20048;-61
2021/05/23 11:13:00;;;;;;;48.13;35.25;;;19.90;61.10;;;;;;5033164;28;20059;-62
2021/05/23 11:15:39;;;;;;;43.93;34.10;;;19.90;61.20;;;;;;5032855;28;20041;-64
2021/05/23 11:18:05;;;;;;;45.10;31.85;;;19.80;61.20;;;;;;5033224;28;20051;-62
2021/05/23 11:20:30;;;;;;;57.33;41.75;;;19.80;61.20;;;;;;5031525;28;20068;-62
2021/05/23 11:22:57;;;;;;;66.82;48.10;;;19.80;61.40;;;;;;5032625;28;20479;-61
2021/05/23 11:25:24;;;;;;;80.00;56.22;;;19.80;61.30;;;;;;5032636;28;20054;-61
2021/05/23 11:27:56;;;;;;;83.47;63.88;;;19.80;60.90;;;;;;5033125;28;20555;-61
2021/05/23 11:30:24;;;;;;;107.60;81.28;;;19.90;60.90;;;;;;5031485;28;20512;-60
2021/05/23 11:32:57;;;;;;;108.03;81.60;;;19.90;60.90;;;;;;5032876;28;20052;-61
2021/05/23 11:35:24;;;;;;;134.77;94.63;;;19.90;60.60;;;;;;5032823;28;20077;-63
2021/05/23 11:37:53;;;;;;;99.50;76.45;;;19.90;59.60;;;;;;5032922;28;20557;-64
2021/05/23 11:40:19;;;;;;;114.63;82.30;;;19.90;58.90;;;;;;5012839;28;20080;-64
2021/05/23 11:42:46;;;;;;;101.53;79.57;;;19.90;59.20;;;;;;5012884;28;20544;-63
2021/05/23 11:45:24;;;;;;;112.65;78.85;;;19.90;58.80;;;;;;5012680;28;20080;-64
2021/05/23 11:47:52;;;;;;;94.57;67.32;;;19.90;58.90;;;;;;5012425;28;20049;-59
2021/05/23 11:50:21;;;;;;;102.85;76.13;;;19.90;59.00;;;;;;5012657;28;20049;-61
2021/05/23 11:52:49;;;;;;;106.65;84.78;;;19.90;59.30;;;;;;5012644;28;20045;-63
2021/05/23 11:55:15;;;;;;;96.03;75.80;;;19.90;59.70;;;;;;5012946;28;20058;-63
2021/05/23 11:57:40;;;;;;;102.00;78.60;;;19.90;59.60;;;;;;5012648;28;20386;-61
2021/05/23 12:00:20;;;;;;;121.75;87.05;;;19.90;59.60;;;;;;5012819;28;20130;-61
2021/05/23 12:02:54;;;;;;;113.80;81.43;;;19.90;59.40;;;;;;5012583;28;20095;-62
2021/05/23 12:05:22;;;;;;;84.85;62.75;;;19.90;59.20;;;;;;5012413;28;20084;-64
2021/05/23 12:07:49;;;;;;;84.53;64.05;;;19.90;58.60;;;;;;5012286;28;20136;-62
2021/05/23 12:10:21;;;;;;;85.97;64.97;;;19.80;58.70;;;;;;5012908;28;20052;-63
2021/05/23 12:12:51;;;;;;;93.20;67.93;;;19.80;58.50;;;;;;5012599;28;20454;-66
2021/05/23 12:15:19;;;;;;;95.80;70.67;;;19.90;58.80;;;;;;5012518;28;20494;-64
2021/05/23 12:18:05;;;;;;;90.35;66.43;;;19.90;59.10;;;;;;5012198;28;20041;-63
2021/05/23 12:20:31;;;;;;;56.83;43.08;;;19.90;59.30;;;;;;5012067;28;20076;-61
2021/05/23 12:22:56;;;;;;;69.70;53.05;;;19.90;58.90;;;;;;5012561;28;20060;-61
2021/05/23 12:37:58;;;;;;;44.83;34.95;;;19.90;58.90;;;;;;5109583;27;20400;-62
2021/05/23 12:40:32;;;;;;;31.20;25.38;;;20.10;58.40;;;;;;5108676;28;20142;-62